createdAt,value
2023-03-31T00:04:05.094Z,79.82
2023-03-31T00:09:11.603Z,79.58
2023-03-31T00:14:13.255Z,79.37
2023-03-31T00:19:18.329Z,79.36
2023-03-31T00:24:19.943Z,79.05
2023-03-31T00:29:21.426Z,79.05
2023-03-31T00:34:22.977Z,79.34
2023-03-31T00:39:24.766Z,79.52
2023-03-31T00:44:30.477Z,79.64
2023-03-31T00:49:47.880Z,79.92
2023-03-31T00:54:54.380Z,79.66
2023-03-31T01:00:01.673Z,80.45
2023-03-31T01:05:03.354Z,80.22
2023-03-31T01:10:05.309Z,79.95
2023-03-31T01:15:08.582Z,80.28
2023-03-31T01:20:34.809Z,80.41
2023-03-31T01:26:21.321Z,80.95
2023-03-31T01:31:48.767Z,80.18
2023-03-31T01:37:31.394Z,80.14
2023-03-31T01:42:39.379Z,79.90
2023-03-31T01:47:49.915Z,80.39
2023-03-31T01:53:05.137Z,79.56
2023-03-31T01:58:15.367Z,80.21
2023-03-31T02:03:22.565Z,80.12
2023-03-31T02:08:29.663Z,80.75
2023-03-31T02:13:34.568Z,80.93
2023-03-31T02:18:38.205Z,80.99
2023-03-31T02:23:40.001Z,80.50
2023-03-31T02:28:41.680Z,81.65
2023-03-31T02:33:43.207Z,81.16
2023-03-31T02:38:59.224Z,81.12
2023-03-31T02:44:01.542Z,80.89
2023-03-31T02:49:07.116Z,80.62
2023-03-31T02:54:18.008Z,81.03
2023-03-31T02:59:37.824Z,80.96
2023-03-31T03:05:02.198Z,80.42
2023-03-31T03:10:07.734Z,80.95
2023-03-31T03:15:22.612Z,80.87
2023-03-31T03:20:24.361Z,80.76
2023-03-31T03:25:26.233Z,81.27
2023-03-31T03:30:27.658Z,81.09
2023-03-31T03:35:29.181Z,81.16
2023-03-31T03:40:30.753Z,81.30
2023-03-31T03:45:32.204Z,81.42
2023-03-31T03:50:50.384Z,81.68
2023-03-31T03:55:51.797Z,82.12
2023-03-31T04:00:53.296Z,81.88
2023-03-31T04:05:54.736Z,82.27
2023-03-31T04:10:56.500Z,82.48
2023-03-31T04:15:58.012Z,81.71
2023-03-31T04:21:05.148Z,81.62
2023-03-31T04:26:09.082Z,82.10
2023-03-31T04:31:15.628Z,82.33
2023-03-31T04:36:19.891Z,82.66
2023-03-31T04:41:22.407Z,82.86
2023-03-31T04:46:24.083Z,83.14
2023-03-31T04:51:25.637Z,83.08
2023-03-31T04:56:27.339Z,83.30
2023-03-31T05:01:33.049Z,83.41
2023-03-31T05:06:34.638Z,83.42
2023-03-31T05:11:36.575Z,83.72
2023-03-31T05:16:38.096Z,83.43
2023-03-31T05:21:39.573Z,84.66
2023-03-31T05:26:41.850Z,84.16
2023-03-31T05:31:43.330Z,83.99
2023-03-31T05:36:44.888Z,83.77
2023-03-31T05:41:46.303Z,83.45
2023-03-31T05:46:47.757Z,83.46
2023-03-31T05:51:49.294Z,82.21
2023-03-31T05:56:50.805Z,82.77
2023-03-31T06:01:52.414Z,82.73
2023-03-31T06:06:54.119Z,82.17
2023-03-31T06:11:55.932Z,81.91
2023-03-31T06:16:58.156Z,81.67
2023-03-31T06:21:59.810Z,81.22
2023-03-31T06:27:01.370Z,81.33
2023-03-31T06:32:05.556Z,81.25
2023-03-31T06:37:07.069Z,80.53
2023-03-31T06:42:08.541Z,81.43
2023-03-31T06:47:09.965Z,80.79
2023-03-31T06:52:11.399Z,80.08
2023-03-31T06:57:13.093Z,79.16
2023-03-31T07:02:14.657Z,77.94
2023-03-31T07:07:16.573Z,77.39
2023-03-31T07:12:18.049Z,77.52
2023-03-31T07:17:19.527Z,77.66
2023-03-31T07:22:20.961Z,78.72
2023-03-31T07:27:24.837Z,77.67
2023-03-31T07:32:29.030Z,77.82
2023-03-31T07:37:38.178Z,78.38
2023-03-31T07:42:39.614Z,76.96
2023-03-31T07:47:41.250Z,77.42
2023-03-31T07:52:44.734Z,78.17
2023-03-31T07:57:47.887Z,78.16
2023-03-31T08:02:49.412Z,77.95
2023-03-31T08:07:51.352Z,75.79
2023-03-31T08:12:53.653Z,73.41
2023-03-31T08:17:55.299Z,74.24
2023-03-31T08:22:56.821Z,74.53
2023-03-31T08:27:58.280Z,74.53
2023-03-31T08:32:59.714Z,74.97
2023-03-31T08:38:02.241Z,74.13
2023-03-31T08:43:13.436Z,74.01
2023-03-31T08:48:22.261Z,72.40
2023-03-31T08:53:27.764Z,72.29
2023-03-31T08:58:44.445Z,72.06
2023-03-31T09:04:12.638Z,70.94
2023-03-31T09:09:32.428Z,69.71
2023-03-31T09:14:49.414Z,69.58
2023-03-31T09:20:07.941Z,68.70
2023-03-31T09:25:19.453Z,68.49
2023-03-31T09:30:26.957Z,67.28
2023-03-31T09:35:33.445Z,65.72
2023-03-31T09:40:35.434Z,67.71
2023-03-31T09:45:37.149Z,67.46
2023-03-31T09:50:47.654Z,67.67
2023-03-31T09:55:57.059Z,67.60
2023-03-31T10:01:06.381Z,68.87
2023-03-31T10:06:14.373Z,68.29
2023-03-31T10:11:16.224Z,68.52
2023-03-31T10:16:30.367Z,67.98
2023-03-31T10:21:37.311Z,68.55
2023-03-31T10:26:40.345Z,68.21
2023-03-31T10:31:41.940Z,68.04
2023-03-31T10:36:48.755Z,68.12
2023-03-31T10:41:53.803Z,68.56
2023-03-31T10:46:55.315Z,67.53
2023-03-31T10:51:59.365Z,66.88
2023-03-31T10:57:05.645Z,66.56
2023-03-31T11:02:35.900Z,65.55
2023-03-31T11:07:56.632Z,63.36
2023-03-31T11:13:18.351Z,61.70
2023-03-31T11:18:36.049Z,61.13
2023-03-31T11:23:47.450Z,63.06
2023-03-31T11:29:18.242Z,63.56
2023-03-31T11:34:39.052Z,62.90
2023-03-31T11:40:09.228Z,61.60
2023-03-31T11:45:18.640Z,59.31
2023-03-31T11:50:23.815Z,60.66
2023-03-31T11:55:28.341Z,61.09
2023-03-31T12:00:44.744Z,62.70
2023-03-31T12:05:50.867Z,61.56
2023-03-31T12:10:58.970Z,61.84
2023-03-31T12:16:14.031Z,61.86
2023-03-31T12:21:16.492Z,60.69
2023-03-31T12:26:25.105Z,61.81
2023-03-31T12:31:28.489Z,61.34
2023-03-31T12:37:10.706Z,61.80
2023-03-31T12:42:40.838Z,62.40
2023-03-31T12:48:11.580Z,63.51
2023-03-31T12:53:28.379Z,64.96
2023-03-31T12:58:32.921Z,67.65
2023-03-31T13:03:39.995Z,70.75
2023-03-31T13:08:52.130Z,69.68
2023-03-31T13:14:13.568Z,71.23
2023-03-31T13:19:29.261Z,72.34
2023-03-31T13:24:33.048Z,76.24
2023-03-31T13:29:44.585Z,77.45
2023-03-31T13:35:03.695Z,80.97
2023-03-31T13:40:26.152Z,78.22
2023-03-31T13:45:52.417Z,79.41
2023-03-31T13:51:09.219Z,81.11
2023-03-31T13:56:35.360Z,83.29
2023-03-31T14:01:44.551Z,85.65
2023-03-31T14:06:55.922Z,86.52
2023-03-31T14:12:01.138Z,87.44
2023-03-31T14:17:03.522Z,86.84
2023-03-31T14:22:37.765Z,87.61
2023-03-31T14:28:05.139Z,87.58
2023-03-31T14:33:25.144Z,87.72
2023-03-31T14:38:29.665Z,87.38
2023-03-31T14:43:34.217Z,86.51
2023-03-31T14:48:45.161Z,85.21
2023-03-31T14:53:46.729Z,85.31
2023-03-31T14:58:52.875Z,86.82
2023-03-31T15:03:55.436Z,87.07
2023-03-31T15:08:57.946Z,87.09
2023-03-31T15:14:04.943Z,86.84
2023-03-31T15:19:35.686Z,86.40
2023-03-31T15:24:37.369Z,86.21
2023-03-31T15:29:44.547Z,85.36
2023-03-31T15:34:46.700Z,84.63
2023-03-31T15:39:49.165Z,81.37
2023-03-31T15:45:17.484Z,80.63
2023-03-31T15:50:22.571Z,78.35
2023-03-31T15:55:23.907Z,77.10
2023-03-31T16:00:47.867Z,76.41
2023-03-31T16:05:58.138Z,75.59
2023-03-31T16:11:07.364Z,75.09
2023-03-31T16:16:12.274Z,76.36
2023-03-31T16:21:16.280Z,77.35
2023-03-31T16:26:22.935Z,78.38
2023-03-31T16:31:37.117Z,78.66
2023-03-31T16:36:38.795Z,79.47
2023-03-31T16:41:40.284Z,79.89
2023-03-31T16:46:41.744Z,80.00
2023-03-31T16:51:43.202Z,79.81
2023-03-31T16:56:44.752Z,80.01
2023-03-31T17:01:46.297Z,79.99
2023-03-31T17:06:47.760Z,79.84
2023-03-31T17:11:49.831Z,80.14
2023-03-31T17:16:51.332Z,79.83
2023-03-31T17:21:52.813Z,80.02
2023-03-31T17:26:54.238Z,80.01
2023-03-31T17:31:55.760Z,80.22
2023-03-31T17:36:57.360Z,79.95
2023-03-31T17:41:59.328Z,79.81
2023-03-31T17:47:01.219Z,79.92
2023-03-31T17:52:02.749Z,79.66
2023-03-31T17:57:04.209Z,79.43
2023-03-31T18:02:05.784Z,80.21
2023-03-31T18:07:07.510Z,81.14
2023-03-31T18:12:09.680Z,81.05
2023-03-31T18:17:14.790Z,81.08
2023-03-31T18:22:16.303Z,80.68
2023-03-31T18:27:18.405Z,79.71
2023-03-31T18:32:20.242Z,79.07
2023-03-31T18:37:22.326Z,79.31
2023-03-31T18:42:25.737Z,79.21
2023-03-31T18:47:27.257Z,79.44
2023-03-31T18:52:29.068Z,78.72
2023-03-31T18:57:30.796Z,78.29
2023-03-31T19:02:32.350Z,78.54
2023-03-31T19:07:34.195Z,78.54
2023-03-31T19:12:35.625Z,78.98
2023-03-31T19:17:37.111Z,78.15
2023-03-31T19:22:38.615Z,78.58
2023-03-31T19:27:41.280Z,79.22
2023-03-31T19:32:42.898Z,79.26
2023-03-31T19:37:45.142Z,79.12
2023-03-31T19:42:46.574Z,79.38
2023-03-31T19:47:48.264Z,79.01
2023-03-31T19:52:50.064Z,79.36
2023-03-31T19:57:51.701Z,79.31
2023-03-31T20:02:53.283Z,79.41
2023-03-31T20:07:54.767Z,79.61
2023-03-31T20:12:56.704Z,79.51
2023-03-31T20:17:58.331Z,79.81
2023-03-31T20:22:59.882Z,80.15
2023-03-31T20:28:01.650Z,79.71
2023-03-31T20:33:03.137Z,79.81
2023-03-31T20:38:04.989Z,80.61
2023-03-31T20:43:06.541Z,82.91
2023-03-31T20:48:08.446Z,84.11
2023-03-31T20:53:09.869Z,84.04
2023-03-31T20:58:11.275Z,84.91
2023-03-31T21:03:12.747Z,85.52
2023-03-31T21:08:14.177Z,85.22
2023-03-31T21:13:16.470Z,85.90
2023-03-31T21:18:17.922Z,86.01
2023-03-31T21:23:20.518Z,85.34
2023-03-31T21:28:25.311Z,86.32
2023-03-31T21:33:27.121Z,85.77
2023-03-31T21:38:28.639Z,85.58
2023-03-31T21:43:30.132Z,86.04
2023-03-31T21:48:31.830Z,85.10
2023-03-31T21:53:33.251Z,84.85
2023-03-31T21:58:34.839Z,84.99
2023-03-31T22:03:38.356Z,84.87
2023-03-31T22:08:40.611Z,84.49
2023-03-31T22:13:42.291Z,83.26
2023-03-31T22:18:44.300Z,84.14
2023-03-31T22:23:46.014Z,84.47
2023-03-31T22:28:48.279Z,84.44
2023-03-31T22:33:49.989Z,83.58
2023-03-31T22:38:51.420Z,83.98
2023-03-31T22:43:52.892Z,83.92
2023-03-31T22:48:54.387Z,83.78
2023-03-31T22:53:56.158Z,84.49
2023-03-31T22:58:58.481Z,83.96
2023-03-31T23:04:01.023Z,84.28
2023-03-31T23:09:02.501Z,83.18
2023-03-31T23:14:04.664Z,84.14
2023-03-31T23:19:06.224Z,84.50
2023-03-31T23:24:07.688Z,84.99
2023-03-31T23:29:09.135Z,85.12
2023-03-31T23:34:11.365Z,85.32
2023-03-31T23:39:12.812Z,85.90
2023-03-31T23:44:14.402Z,86.29
2023-03-31T23:49:16.157Z,86.68
2023-03-31T23:54:17.759Z,87.54
2023-03-31T23:59:19.203Z,87.11
